Relevés horaires Bouveret (Suisse)


Relevés horaires à Bouveret - Vendredi 06 Févr. 2015
Heure UTC1 Température [°C] Vent [km/h] Hum. [%] Pres.4 [hPa] Visi. [Km] Nébu. [octa] Préc.5 [mm] Cond.
2m. Res. Ros. Dir.2 Vit. Moy. Raf.3
23:00 0.8 -1.6 -4.4 N 7.4 11.1 14.8 68 1016.7(2.2/3h) -- -- -- --
22:00 0.8 -2.2 -4.4 NNO 9.3 13.0 20.4 68 1016.1(2.1/3h) -- -- -- --
21:00 0.7 -2.7 -4.5 N 11.1 14.8 24.1 68 1015.3(2.2/3h) -- -- -- --
20:00 0.8 -2.2 -4.4 NNO 9.3 13.0 18.5 68 1014.4(1.7/3h) -- -- -- --
19:00 0.9 -2.5 -4.2 NO 11.1 14.8 24.1 69 1013.8(1.9/3h) -- -- -- --
18:00 0.8 -2.6 -4.4 ONO 11.1 27.8 37.0 68 1013(1.7/3h) -- -- -- --
17:00 1.0 -3.8 -3.9 ONO 18.5 18.5 31.5 70 1012.6(1.9/3h) -- -- -- --
16:00 0.9 -4.4 -3.9 O 22.2 27.8 37.0 70 1011.9(2.2/3h) -- -- -- --
15:00 1.1 -3.9 -4.5 NNO 20.4 22.2 37.0 66 1011.2(1.6/3h) -- -- -- --
14:00 1.2 -3.2 -4.4 NNO 16.7 20.4 35.2 66 1010.5(1.0/3h) -- -- -- --
13:00 1.2 -3.5 -4.1 N 18.5 18.5 35.2 68 1009.5(0.2/3h) -- -- -- --
12:00 1.3 -2.4 -3.8 ONO 13.0 14.8 20.4 69 1009.5 -- -- -- --
11:00 0.6 0.6 -5.8 S 3.7 5.6 9.3 62 1009.6(0.3/3h) -- -- -- --
10:00 -0.2 -2.8 -5.5 SSE 7.4 9.3 13.0 67 1009.5(0.5/3h) -- -- -- --
09:00 -1.1 -4.4 -5.6 SE 9.3 11.1 16.7 71 1009.6(0.4/3h) -- -- -- --
08:00 -2.4 -5.3 -5.0 SSE 7.4 11.1 16.7 82 1009.8(-0.1/3h) -- -- -- --
07:00 -2.4 -6 -5.1 SSE 9.3 9.3 14.8 82 1009.4(-0.7/3h) -- -- -- --
06:00 -2.3 -5.2 -4.9 SSE 7.4 13.0 20.4 82 1009.4(-0.7/3h) -- -- -- --
05:00 -2.1 -5 -4.8 SSE 7.4 7.4 11.1 82 1009.9(0.0/3h) -- -- -- --
04:00 -1.4 -3.5 -4.4 SSE 5.6 5.6 9.3 80 1010(0.1/3h) -- -- -- --
03:00 -1.2 -1.2 -4.4 SE 3.7 13.0 20.4 79 1009.9(-0.7/3h) -- -- -- --
02:00 -1.4 -3.5 -4.3 SSE 5.6 5.6 9.3 81 1009.7(-0.8/3h) -- -- -- --
01:00 -0.2 -0.2 -5.5 N 3.7 13.0 20.4 67 1009.8(0.0/3h) -- -- -- --
00:00 -0.3 -5.1 -4.8 N 16.7 22.2 38.9 72 1010.5(0.4/3h) -- -- -- --

1 Coordinated Universal Time. Actuellement il est 04:00 locale et 02:00 UTC.

2 Le vent souffle depuis la direction indiquée vers la direction oposée.

3 Les rafales max. sont disponible 40 min après l'heure du relevé.

4 Pour les stations d'altitude (plus de 600m) le géopotentiel du niveau le plus proche de la pression obligatoire est indiqué.

5 Les stations disposant d'un diffuseur peuvent indiquer "trace". Cela signifie que des précipitations ont touchés le sol mais que la quantité est inférieure à 0.1 mm.

Copyright

Les données affichées sur cette page sont la propriété exclusive de Météo Suisse.

Récapitulatif de la journée
Température [°C] Vent [km/h] Ensoleillement4 [h] Precipitations totale5 [mm] Pression [Hpa]
Min1 Max.2 Moy.3 Max. Min Max.
-2.2 1.4 14.3 38.9 0 h 0 min 0 1009.4 1016.7

1 Température minimale relevée entre 18:00 UTC la veille et 18:00 UTC le jour donné.

2 Température maximale relevée entre 06:00 UTC le jour donné et 06:00 UTC le lendemain.

3 Vent moyen de la journée basé sur les relevés horaires.

4 Ensoleillement en heures relevé entre 06:00 UTC la veille et 06:00 UTC le jour donné.

5 Précipitations totales tombées entre 06:00 UTC la jour donné et 06:00 UTC le lendemain.

Graphiques horaires